CDT,Max TemperatureF,Mean TemperatureF,Min TemperatureF,Max Dew PointF,MeanDew PointF,Min DewpointF,Max Humidity, Mean Humidity, Min Humidity, Max Sea Level PressureIn, Mean Sea Level PressureIn, Min Sea Level PressureIn, Max VisibilityMiles, Mean VisibilityMiles, Min VisibilityMiles, Max Wind SpeedMPH, Mean Wind SpeedMPH, Max Gust SpeedMPH,PrecipitationIn, CloudCover, Events, WindDirDegrees
2014-3-1,84,66,47,68,59,44,100,84,48,30.02,29.96,29.88,10,7,0,21,6,30,0.00,5,Fog,158
2014-3-2,72,51,30,68,51,23,94,84,70,30.19,29.99,29.88,10,9,4,25,11,34,0.00,5,Rain,76
2014-3-3,45,34,24,30,24,16,82,64,38,30.38,30.27,30.22,10,10,6,22,13,31,0.01,6,Rain-Thunderstorm,29
2014-3-4,44,38,32,35,31,28,93,83,61,30.25,30.17,30.05,10,9,5,10,6,,0.03,8,Rain-Thunderstorm,46
2014-3-5,59,49,39,44,38,32,87,77,55,30.17,30.04,29.97,10,10,9,9,4,,0.00,6,,134
2014-3-6,61,50,40,41,38,35,93,69,38,30.25,30.16,30.08,10,10,9,14,6,18,0.00,0,,2
2014-3-7,70,54,37,48,42,34,88,64,38,30.08,29.98,29.86,10,10,10,17,7,21,0.00,0,,163
2014-3-8,60,52,44,59,51,38,100,88,76,30.23,30.06,29.88,10,8,2,20,8,30,0.10,7,Rain-Thunderstorm,28
2014-3-9,53,48,42,45,39,32,82,70,61,30.34,30.25,30.20,10,10,10,15,10,24,0.00,7,Rain,23
2014-3-10,66,57,48,57,54,43,95,87,64,30.23,30.03,29.91,10,9,3,13,5,,0.09,7,Rain,212
2014-3-11,79,66,54,55,53,50,94,79,38,29.95,29.82,29.62,10,9,6,15,7,24,0.00,6,,220
2014-3-12,68,58,44,51,31,19,64,38,18,30.29,30.11,29.73,10,10,10,28,18,41,0.00,0,,348
2014-3-13,66,51,36,42,27,22,68,42,20,30.36,30.25,30.13,10,10,10,14,7,,0.00,0,,89
2014-3-14,74,59,46,59,51,43,94,77,51,30.11,30.04,29.94,10,9,3,17,6,23,0.00,5,Fog,159
2014-3-15,78,70,62,64,61,56,100,84,51,29.96,29.87,29.69,10,8,0,13,7,,0.00,6,Fog-Rain,157
2014-3-16,67,58,49,64,49,30,94,66,31,30.05,29.86,29.73,10,10,8,26,11,36,0.00,4,Rain-Thunderstorm,326
2014-3-17,69,55,41,30,26,21,59,38,16,30.06,29.94,29.78,10,10,10,18,9,29,0.00,1,,268
2014-3-18,84,64,43,56,42,28,81,48,23,29.83,29.75,29.68,10,10,8,15,8,21,0.00,0,,184
2014-3-19,73,64,54,55,41,28,91,53,28,30.20,30.03,29.84,10,10,9,21,8,25,0.00,4,,16
2014-3-20,76,60,45,43,37,33,69,45,24,30.24,30.14,30.04,10,10,10,13,7,20,0.00,0,,61
2014-3-21,79,65,51,60,55,46,94,72,45,30.04,29.94,29.84,10,10,4,18,8,25,0.00,3,Fog,179
2014-3-22,78,69,60,66,64,59,100,85,60,30.00,29.94,29.88,10,8,1,9,5,,0.00,5,Rain,151
2014-3-23,68,58,48,66,48,36,88,66,50,30.24,30.12,30.01,10,10,10,24,10,33,0.00,6,,35
2014-3-24,58,54,48,50,46,38,100,78,56,30.22,30.11,30.04,10,8,0,12,6,,0.18,6,Fog-Rain-Thunderstorm,356
2014-3-25,68,56,44,48,44,38,100,78,35,30.32,30.19,30.14,10,7,0,16,6,23,0.00,1,Fog,4
2014-3-26,62,58,53,58,52,44,94,80,64,30.22,30.06,29.96,10,9,4,32,13,50,0.07,7,Rain,164
2014-3-27,80,70,60,68,62,57,100,92,58,29.97,29.86,29.73,10,5,0,17,12,,0.01,7,Fog-Rain,174
2014-3-28,92,79,64,68,61,30,100,80,11,29.99,29.80,29.71,10,7,1,18,7,31,0.00,6,,166
2014-3-29,78,66,54,56,40,30,74,41,17,30.25,30.16,30.01,10,10,10,16,12,22,0.00,0,,30
2014-3-30,80,62,46,53,45,37,74,52,30,30.22,30.12,30.00,10,10,10,21,10,25,0.00,1,,111
2014-3-31,83,72,60,61,58,54,94,76,42,30.04,29.95,29.84,10,10,7,18,11,28,0.00,5,,169